sensor_id;sensor_type;location;lat;lon;timestamp;P1;durP1;ratioP1;P2;durP2;ratioP2
43118;SDS011;28729;49.838;8.650;2022-09-09T00:00:21;2.88;;;0.90;;
43118;SDS011;28729;49.838;8.650;2022-09-09T00:04:27;2.78;;;1.20;;
43118;SDS011;28729;49.838;8.650;2022-09-09T00:08:42;8.30;;;1.20;;
43118;SDS011;28729;49.838;8.650;2022-09-09T00:13:13;1.60;;;1.00;;
43118;SDS011;28729;49.838;8.650;2022-09-09T00:17:39;3.22;;;1.20;;
43118;SDS011;28729;49.838;8.650;2022-09-09T00:30:24;5.00;;;1.20;;
43118;SDS011;28729;49.838;8.650;2022-09-09T00:34:27;3.33;;;1.08;;
43118;SDS011;28729;49.838;8.650;2022-09-09T00:38:32;8.77;;;1.30;;
43118;SDS011;28729;49.838;8.650;2022-09-09T00:42:42;2.88;;;1.33;;
43118;SDS011;28729;49.838;8.650;2022-09-09T00:46:53;4.78;;;1.02;;
43118;SDS011;28729;49.838;8.650;2022-09-09T00:51:03;5.75;;;1.17;;
43118;SDS011;28729;49.838;8.650;2022-09-09T00:59:59;4.90;;;1.10;;
43118;SDS011;28729;49.838;8.650;2022-09-09T01:04:08;7.97;;;1.50;;
43118;SDS011;28729;49.838;8.650;2022-09-09T01:12:50;4.28;;;1.20;;
43118;SDS011;28729;49.838;8.650;2022-09-09T01:16:55;5.72;;;1.25;;
43118;SDS011;28729;49.838;8.650;2022-09-09T01:25:29;3.90;;;1.38;;
43118;SDS011;28729;49.838;8.650;2022-09-09T01:29:56;4.75;;;1.40;;
43118;SDS011;28729;49.838;8.650;2022-09-09T01:33:59;6.10;;;1.40;;
43118;SDS011;28729;49.838;8.650;2022-09-09T01:38:01;6.80;;;1.48;;
43118;SDS011;28729;49.838;8.650;2022-09-09T01:42:04;5.45;;;1.58;;
43118;SDS011;28729;49.838;8.650;2022-09-09T01:46:08;4.00;;;1.55;;
43118;SDS011;28729;49.838;8.650;2022-09-09T01:50:11;8.73;;;1.55;;
43118;SDS011;28729;49.838;8.650;2022-09-09T01:54:16;7.15;;;1.77;;
43118;SDS011;28729;49.838;8.650;2022-09-09T01:58:29;4.93;;;1.77;;
43118;SDS011;28729;49.838;8.650;2022-09-09T02:02:39;4.97;;;1.50;;
43118;SDS011;28729;49.838;8.650;2022-09-09T02:06:49;3.33;;;1.38;;
43118;SDS011;28729;49.838;8.650;2022-09-09T02:15:23;4.97;;;1.50;;
43118;SDS011;28729;49.838;8.650;2022-09-09T02:19:32;3.57;;;1.40;;
43118;SDS011;28729;49.838;8.650;2022-09-09T02:23:45;2.63;;;1.40;;
43118;SDS011;28729;49.838;8.650;2022-09-09T02:27:50;4.82;;;1.33;;
43118;SDS011;28729;49.838;8.650;2022-09-09T02:31:53;6.55;;;1.73;;
43118;SDS011;28729;49.838;8.650;2022-09-09T02:36:03;4.05;;;1.30;;
43118;SDS011;28729;49.838;8.650;2022-09-09T02:40:09;4.00;;;1.30;;
43118;SDS011;28729;49.838;8.650;2022-09-09T02:44:17;4.57;;;1.33;;
43118;SDS011;28729;49.838;8.650;2022-09-09T03:01:11;4.82;;;1.30;;
43118;SDS011;28729;49.838;8.650;2022-09-09T03:05:13;5.50;;;1.40;;
43118;SDS011;28729;49.838;8.650;2022-09-09T03:09:15;3.45;;;1.20;;
43118;SDS011;28729;49.838;8.650;2022-09-09T03:13:17;6.35;;;1.30;;
43118;SDS011;28729;49.838;8.650;2022-09-09T03:17:20;5.72;;;1.58;;
43118;SDS011;28729;49.838;8.650;2022-09-09T03:21:26;4.07;;;1.42;;
43118;SDS011;28729;49.838;8.650;2022-09-09T03:25:29;4.10;;;1.50;;
43118;SDS011;28729;49.838;8.650;2022-09-09T03:29:31;2.97;;;1.47;;
43118;SDS011;28729;49.838;8.650;2022-09-09T03:33:38;6.68;;;1.70;;
43118;SDS011;28729;49.838;8.650;2022-09-09T03:37:44;2.53;;;1.27;;
43118;SDS011;28729;49.838;8.650;2022-09-09T03:41:47;5.20;;;1.40;;
43118;SDS011;28729;49.838;8.650;2022-09-09T03:45:49;6.27;;;1.50;;
43118;SDS011;28729;49.838;8.650;2022-09-09T03:49:52;5.43;;;1.52;;
43118;SDS011;28729;49.838;8.650;2022-09-09T03:53:53;5.05;;;1.45;;
43118;SDS011;28729;49.838;8.650;2022-09-09T03:57:56;2.95;;;1.33;;
43118;SDS011;28729;49.838;8.650;2022-09-09T04:01:58;1.95;;;1.10;;
43118;SDS011;28729;49.838;8.650;2022-09-09T04:06:01;6.63;;;1.80;;
43118;SDS011;28729;49.838;8.650;2022-09-09T04:10:06;7.03;;;1.80;;
43118;SDS011;28729;49.838;8.650;2022-09-09T04:14:12;3.53;;;1.65;;
43118;SDS011;28729;49.838;8.650;2022-09-09T04:18:14;5.60;;;2.03;;
43118;SDS011;28729;49.838;8.650;2022-09-09T04:22:20;5.00;;;1.50;;
43118;SDS011;28729;49.838;8.650;2022-09-09T04:26:23;3.13;;;1.27;;
43118;SDS011;28729;49.838;8.650;2022-09-09T04:30:26;6.65;;;1.33;;
43118;SDS011;28729;49.838;8.650;2022-09-09T04:34:29;5.72;;;1.90;;
43118;SDS011;28729;49.838;8.650;2022-09-09T04:42:35;6.03;;;1.55;;
43118;SDS011;28729;49.838;8.650;2022-09-09T04:46:37;4.90;;;1.90;;
43118;SDS011;28729;49.838;8.650;2022-09-09T04:50:39;4.45;;;1.50;;
43118;SDS011;28729;49.838;8.650;2022-09-09T04:54:44;6.15;;;1.45;;
43118;SDS011;28729;49.838;8.650;2022-09-09T04:58:47;3.65;;;1.25;;
43118;SDS011;28729;49.838;8.650;2022-09-09T05:02:49;6.00;;;1.38;;
43118;SDS011;28729;49.838;8.650;2022-09-09T05:06:52;3.72;;;1.27;;
43118;SDS011;28729;49.838;8.650;2022-09-09T05:10:53;6.32;;;1.30;;
43118;SDS011;28729;49.838;8.650;2022-09-09T05:14:56;2.55;;;1.15;;
43118;SDS011;28729;49.838;8.650;2022-09-09T05:18:58;4.72;;;1.58;;
43118;SDS011;28729;49.838;8.650;2022-09-09T05:23:07;6.85;;;1.40;;
43118;SDS011;28729;49.838;8.650;2022-09-09T05:27:09;4.60;;;1.00;;
43118;SDS011;28729;49.838;8.650;2022-09-09T05:31:14;5.32;;;1.10;;
43118;SDS011;28729;49.838;8.650;2022-09-09T05:35:19;5.60;;;1.40;;
43118;SDS011;28729;49.838;8.650;2022-09-09T05:39:23;4.65;;;1.30;;
43118;SDS011;28729;49.838;8.650;2022-09-09T05:43:25;7.15;;;1.65;;
43118;SDS011;28729;49.838;8.650;2022-09-09T05:47:29;3.40;;;1.10;;
43118;SDS011;28729;49.838;8.650;2022-09-09T05:51:31;2.83;;;0.95;;
43118;SDS011;28729;49.838;8.650;2022-09-09T05:55:40;3.75;;;1.25;;
43118;SDS011;28729;49.838;8.650;2022-09-09T05:59:41;6.05;;;1.40;;
43118;SDS011;28729;49.838;8.650;2022-09-09T06:03:44;5.03;;;1.10;;
43118;SDS011;28729;49.838;8.650;2022-09-09T06:07:46;5.97;;;1.10;;
43118;SDS011;28729;49.838;8.650;2022-09-09T06:11:48;3.10;;;1.42;;
43118;SDS011;28729;49.838;8.650;2022-09-09T06:15:50;6.35;;;1.58;;
43118;SDS011;28729;49.838;8.650;2022-09-09T06:19:53;5.40;;;1.02;;
43118;SDS011;28729;49.838;8.650;2022-09-09T06:23:55;3.25;;;1.10;;
43118;SDS011;28729;49.838;8.650;2022-09-09T06:28:01;7.55;;;1.30;;
43118;SDS011;28729;49.838;8.650;2022-09-09T06:32:04;11.65;;;1.60;;
43118;SDS011;28729;49.838;8.650;2022-09-09T06:36:13;11.63;;;2.15;;
43118;SDS011;28729;49.838;8.650;2022-09-09T06:40:17;4.15;;;1.15;;
43118;SDS011;28729;49.838;8.650;2022-09-09T06:44:19;3.27;;;0.97;;
43118;SDS011;28729;49.838;8.650;2022-09-09T06:48:21;6.65;;;1.30;;
43118;SDS011;28729;49.838;8.650;2022-09-09T06:52:23;5.25;;;1.38;;
43118;SDS011;28729;49.838;8.650;2022-09-09T06:56:29;3.38;;;1.20;;
43118;SDS011;28729;49.838;8.650;2022-09-09T07:00:40;5.35;;;1.48;;
43118;SDS011;28729;49.838;8.650;2022-09-09T07:04:43;7.93;;;1.42;;
43118;SDS011;28729;49.838;8.650;2022-09-09T07:08:49;6.05;;;1.38;;
43118;SDS011;28729;49.838;8.650;2022-09-09T07:13:00;5.57;;;1.40;;
43118;SDS011;28729;49.838;8.650;2022-09-09T07:17:03;5.93;;;1.30;;
43118;SDS011;28729;49.838;8.650;2022-09-09T07:21:10;6.55;;;1.70;;
43118;SDS011;28729;49.838;8.650;2022-09-09T07:25:16;8.45;;;2.45;;
43118;SDS011;28729;49.838;8.650;2022-09-09T07:29:20;3.95;;;1.45;;
43118;SDS011;28729;49.838;8.650;2022-09-09T07:33:24;5.10;;;1.60;;
43118;SDS011;28729;49.838;8.650;2022-09-09T07:37:27;5.88;;;1.35;;
43118;SDS011;28729;49.838;8.650;2022-09-09T07:45:35;3.80;;;1.35;;
43118;SDS011;28729;49.838;8.650;2022-09-09T07:49:37;5.20;;;1.40;;
43118;SDS011;28729;49.838;8.650;2022-09-09T07:53:40;4.75;;;1.50;;
43118;SDS011;28729;49.838;8.650;2022-09-09T07:57:42;3.80;;;1.57;;
43118;SDS011;28729;49.838;8.650;2022-09-09T08:01:46;6.35;;;1.48;;
43118;SDS011;28729;49.838;8.650;2022-09-09T08:05:52;6.00;;;1.45;;
43118;SDS011;28729;49.838;8.650;2022-09-09T08:09:54;5.55;;;1.73;;
43118;SDS011;28729;49.838;8.650;2022-09-09T08:14:02;7.78;;;1.52;;
43118;SDS011;28729;49.838;8.650;2022-09-09T08:18:04;5.00;;;1.27;;
43118;SDS011;28729;49.838;8.650;2022-09-09T08:22:07;6.32;;;1.60;;
43118;SDS011;28729;49.838;8.650;2022-09-09T08:30:24;5.72;;;1.13;;
43118;SDS011;28729;49.838;8.650;2022-09-09T08:34:26;7.83;;;1.50;;
43118;SDS011;28729;49.838;8.650;2022-09-09T08:38:31;5.85;;;1.88;;
43118;SDS011;28729;49.838;8.650;2022-09-09T08:42:38;9.93;;;2.05;;
43118;SDS011;28729;49.838;8.650;2022-09-09T08:51:34;7.88;;;1.75;;
43118;SDS011;28729;49.838;8.650;2022-09-09T08:55:50;7.00;;;1.93;;
43118;SDS011;28729;49.838;8.650;2022-09-09T09:00:00;8.13;;;1.48;;
43118;SDS011;28729;49.838;8.650;2022-09-09T09:12:40;8.65;;;1.45;;
43118;SDS011;28729;49.838;8.650;2022-09-09T09:16:54;9.52;;;1.63;;
43118;SDS011;28729;49.838;8.650;2022-09-09T09:21:16;11.07;;;1.85;;
43118;SDS011;28729;49.838;8.650;2022-09-09T09:25:31;5.38;;;1.83;;
43118;SDS011;28729;49.838;8.650;2022-09-09T09:29:36;6.00;;;1.70;;
43118;SDS011;28729;49.838;8.650;2022-09-09T09:34:02;8.48;;;1.60;;
43118;SDS011;28729;49.838;8.650;2022-09-09T09:42:46;9.30;;;1.60;;
43118;SDS011;28729;49.838;8.650;2022-09-09T09:47:12;7.35;;;1.63;;
43118;SDS011;28729;49.838;8.650;2022-09-09T09:51:18;7.07;;;1.20;;
43118;SDS011;28729;49.838;8.650;2022-09-09T09:55:24;5.60;;;1.35;;
43118;SDS011;28729;49.838;8.650;2022-09-09T10:12:19;5.68;;;1.25;;
43118;SDS011;28729;49.838;8.650;2022-09-09T10:16:34;5.43;;;1.38;;
43118;SDS011;28729;49.838;8.650;2022-09-09T10:21:06;7.57;;;1.35;;
43118;SDS011;28729;49.838;8.650;2022-09-09T10:29:49;4.53;;;1.00;;
43118;SDS011;28729;49.838;8.650;2022-09-09T10:38:47;11.63;;;1.75;;
43118;SDS011;28729;49.838;8.650;2022-09-09T10:43:13;8.73;;;2.13;;
43118;SDS011;28729;49.838;8.650;2022-09-09T10:47:43;9.35;;;1.58;;
43118;SDS011;28729;49.838;8.650;2022-09-09T10:52:09;4.60;;;1.60;;
43118;SDS011;28729;49.838;8.650;2022-09-09T10:56:20;22.33;;;3.70;;
43118;SDS011;28729;49.838;8.650;2022-09-09T11:04:41;26.35;;;5.63;;
43118;SDS011;28729;49.838;8.650;2022-09-09T11:08:46;26.92;;;6.75;;
43118;SDS011;28729;49.838;8.650;2022-09-09T11:12:59;22.02;;;5.85;;
43118;SDS011;28729;49.838;8.650;2022-09-09T11:17:22;23.77;;;6.28;;
43118;SDS011;28729;49.838;8.650;2022-09-09T11:21:32;28.00;;;7.60;;
43118;SDS011;28729;49.838;8.650;2022-09-09T11:25:40;22.02;;;6.22;;
43118;SDS011;28729;49.838;8.650;2022-09-09T11:38:47;14.68;;;4.25;;
43118;SDS011;28729;49.838;8.650;2022-09-09T11:47:14;7.72;;;2.78;;
43118;SDS011;28729;49.838;8.650;2022-09-09T11:51:47;7.37;;;1.87;;
43118;SDS011;28729;49.838;8.650;2022-09-09T11:56:02;15.52;;;2.75;;
43118;SDS011;28729;49.838;8.650;2022-09-09T12:00:27;10.63;;;2.30;;
43118;SDS011;28729;49.838;8.650;2022-09-09T12:05:08;9.43;;;2.35;;
43118;SDS011;28729;49.838;8.650;2022-09-09T12:09:22;9.82;;;3.08;;
43118;SDS011;28729;49.838;8.650;2022-09-09T12:13:28;6.53;;;2.35;;
43118;SDS011;28729;49.838;8.650;2022-09-09T12:17:30;7.63;;;2.10;;
43118;SDS011;28729;49.838;8.650;2022-09-09T12:21:37;8.48;;;1.90;;
43118;SDS011;28729;49.838;8.650;2022-09-09T12:25:57;7.43;;;1.58;;
43118;SDS011;28729;49.838;8.650;2022-09-09T12:30:04;5.78;;;1.58;;
43118;SDS011;28729;49.838;8.650;2022-09-09T12:34:16;5.30;;;2.05;;
43118;SDS011;28729;49.838;8.650;2022-09-09T12:38:37;11.98;;;2.17;;
43118;SDS011;28729;49.838;8.650;2022-09-09T12:42:40;5.53;;;1.30;;
43118;SDS011;28729;49.838;8.650;2022-09-09T12:46:43;10.40;;;1.33;;
43118;SDS011;28729;49.838;8.650;2022-09-09T12:50:48;9.30;;;1.27;;
43118;SDS011;28729;49.838;8.650;2022-09-09T12:54:52;5.75;;;1.13;;
43118;SDS011;28729;49.838;8.650;2022-09-09T12:58:55;7.05;;;0.85;;
43118;SDS011;28729;49.838;8.650;2022-09-09T13:03:00;4.47;;;0.98;;
43118;SDS011;28729;49.838;8.650;2022-09-09T13:07:07;5.35;;;0.88;;
43118;SDS011;28729;49.838;8.650;2022-09-09T13:11:12;5.10;;;1.00;;
43118;SDS011;28729;49.838;8.650;2022-09-09T13:15:22;4.50;;;1.02;;
43118;SDS011;28729;49.838;8.650;2022-09-09T13:19:25;3.58;;;0.70;;
43118;SDS011;28729;49.838;8.650;2022-09-09T13:23:30;1.80;;;0.70;;
43118;SDS011;28729;49.838;8.650;2022-09-09T13:27:37;2.85;;;0.60;;
43118;SDS011;28729;49.838;8.650;2022-09-09T13:31:41;2.78;;;0.50;;
43118;SDS011;28729;49.838;8.650;2022-09-09T13:35:46;1.60;;;0.30;;
43118;SDS011;28729;49.838;8.650;2022-09-09T13:39:51;2.92;;;0.43;;
43118;SDS011;28729;49.838;8.650;2022-09-09T13:43:54;1.40;;;0.35;;
43118;SDS011;28729;49.838;8.650;2022-09-09T13:47:56;1.48;;;0.88;;
43118;SDS011;28729;49.838;8.650;2022-09-09T13:52:13;1.63;;;0.50;;
43118;SDS011;28729;49.838;8.650;2022-09-09T13:56:18;5.00;;;0.70;;
43118;SDS011;28729;49.838;8.650;2022-09-09T14:00:20;1.73;;;0.67;;
43118;SDS011;28729;49.838;8.650;2022-09-09T14:04:22;3.38;;;0.70;;
43118;SDS011;28729;49.838;8.650;2022-09-09T14:08:24;2.95;;;0.75;;
43118;SDS011;28729;49.838;8.650;2022-09-09T14:12:29;2.45;;;0.70;;
43118;SDS011;28729;49.838;8.650;2022-09-09T14:16:31;2.43;;;0.77;;
43118;SDS011;28729;49.838;8.650;2022-09-09T14:20:33;3.17;;;0.75;;
43118;SDS011;28729;49.838;8.650;2022-09-09T14:24:34;4.85;;;1.17;;
43118;SDS011;28729;49.838;8.650;2022-09-09T14:28:39;4.10;;;0.95;;
43118;SDS011;28729;49.838;8.650;2022-09-09T14:32:57;1.83;;;0.60;;
43118;SDS011;28729;49.838;8.650;2022-09-09T14:36:59;3.85;;;0.70;;
43118;SDS011;28729;49.838;8.650;2022-09-09T14:41:00;1.55;;;0.70;;
43118;SDS011;28729;49.838;8.650;2022-09-09T14:45:04;2.65;;;0.73;;
43118;SDS011;28729;49.838;8.650;2022-09-09T14:49:06;3.13;;;0.82;;
43118;SDS011;28729;49.838;8.650;2022-09-09T14:53:08;3.13;;;0.93;;
43118;SDS011;28729;49.838;8.650;2022-09-09T14:57:11;1.77;;;0.60;;
43118;SDS011;28729;49.838;8.650;2022-09-09T15:01:13;2.63;;;0.80;;
43118;SDS011;28729;49.838;8.650;2022-09-09T15:05:17;1.25;;;0.63;;
43118;SDS011;28729;49.838;8.650;2022-09-09T15:09:18;4.68;;;0.57;;
43118;SDS011;28729;49.838;8.650;2022-09-09T15:13:20;3.33;;;0.77;;
43118;SDS011;28729;49.838;8.650;2022-09-09T15:17:23;2.15;;;0.68;;
43118;SDS011;28729;49.838;8.650;2022-09-09T15:21:29;1.27;;;0.50;;
43118;SDS011;28729;49.838;8.650;2022-09-09T15:25:34;2.97;;;0.50;;
43118;SDS011;28729;49.838;8.650;2022-09-09T15:29:38;2.38;;;0.70;;
43118;SDS011;28729;49.838;8.650;2022-09-09T15:33:40;2.72;;;0.63;;
43118;SDS011;28729;49.838;8.650;2022-09-09T15:37:42;2.85;;;1.13;;
43118;SDS011;28729;49.838;8.650;2022-09-09T15:41:45;5.35;;;1.33;;
43118;SDS011;28729;49.838;8.650;2022-09-09T15:45:49;3.80;;;0.90;;
43118;SDS011;28729;49.838;8.650;2022-09-09T15:49:58;4.22;;;0.60;;
43118;SDS011;28729;49.838;8.650;2022-09-09T15:53:59;3.15;;;0.73;;
43118;SDS011;28729;49.838;8.650;2022-09-09T15:58:01;5.25;;;1.30;;
43118;SDS011;28729;49.838;8.650;2022-09-09T16:02:03;3.58;;;0.75;;
43118;SDS011;28729;49.838;8.650;2022-09-09T16:06:06;6.28;;;1.13;;
43118;SDS011;28729;49.838;8.650;2022-09-09T16:10:08;3.45;;;0.88;;
43118;SDS011;28729;49.838;8.650;2022-09-09T16:14:10;2.30;;;0.70;;
43118;SDS011;28729;49.838;8.650;2022-09-09T16:18:12;5.03;;;0.70;;
43118;SDS011;28729;49.838;8.650;2022-09-09T16:22:13;5.28;;;0.93;;
43118;SDS011;28729;49.838;8.650;2022-09-09T16:26:17;1.00;;;0.40;;
43118;SDS011;28729;49.838;8.650;2022-09-09T16:30:19;3.70;;;0.50;;
43118;SDS011;28729;49.838;8.650;2022-09-09T16:34:21;2.95;;;0.85;;
43118;SDS011;28729;49.838;8.650;2022-09-09T16:38:23;1.42;;;0.50;;
43118;SDS011;28729;49.838;8.650;2022-09-09T16:42:25;3.27;;;0.77;;
43118;SDS011;28729;49.838;8.650;2022-09-09T16:46:28;2.43;;;0.70;;
43118;SDS011;28729;49.838;8.650;2022-09-09T16:50:30;3.15;;;0.80;;
43118;SDS011;28729;49.838;8.650;2022-09-09T16:54:32;1.45;;;0.68;;
43118;SDS011;28729;49.838;8.650;2022-09-09T16:58:33;2.42;;;0.80;;
43118;SDS011;28729;49.838;8.650;2022-09-09T17:02:35;2.03;;;0.67;;
43118;SDS011;28729;49.838;8.650;2022-09-09T17:06:37;3.25;;;0.98;;
43118;SDS011;28729;49.838;8.650;2022-09-09T17:10:42;2.77;;;0.77;;
43118;SDS011;28729;49.838;8.650;2022-09-09T17:14:44;6.00;;;1.05;;
43118;SDS011;28729;49.838;8.650;2022-09-09T17:18:47;3.83;;;0.93;;
43118;SDS011;28729;49.838;8.650;2022-09-09T17:22:52;2.58;;;0.80;;
43118;SDS011;28729;49.838;8.650;2022-09-09T17:26:54;2.65;;;0.88;;
43118;SDS011;28729;49.838;8.650;2022-09-09T17:30:57;4.35;;;1.10;;
43118;SDS011;28729;49.838;8.650;2022-09-09T17:35:02;3.20;;;1.08;;
43118;SDS011;28729;49.838;8.650;2022-09-09T17:39:07;3.40;;;0.85;;
43118;SDS011;28729;49.838;8.650;2022-09-09T17:43:09;2.90;;;0.82;;
43118;SDS011;28729;49.838;8.650;2022-09-09T17:47:10;3.25;;;1.02;;
43118;SDS011;28729;49.838;8.650;2022-09-09T17:51:15;3.50;;;1.00;;
43118;SDS011;28729;49.838;8.650;2022-09-09T17:55:20;2.92;;;1.13;;
43118;SDS011;28729;49.838;8.650;2022-09-09T17:59:22;5.30;;;1.02;;
43118;SDS011;28729;49.838;8.650;2022-09-09T18:03:25;4.40;;;1.10;;
43118;SDS011;28729;49.838;8.650;2022-09-09T18:07:27;3.63;;;0.95;;
43118;SDS011;28729;49.838;8.650;2022-09-09T18:11:30;3.63;;;1.20;;
43118;SDS011;28729;49.838;8.650;2022-09-09T18:15:36;4.00;;;0.98;;
43118;SDS011;28729;49.838;8.650;2022-09-09T18:19:50;4.07;;;1.20;;
43118;SDS011;28729;49.838;8.650;2022-09-09T18:23:52;2.87;;;1.20;;
43118;SDS011;28729;49.838;8.650;2022-09-09T18:27:54;3.47;;;1.23;;
43118;SDS011;28729;49.838;8.650;2022-09-09T18:31:55;3.70;;;1.20;;
43118;SDS011;28729;49.838;8.650;2022-09-09T18:36:02;3.40;;;1.17;;
43118;SDS011;28729;49.838;8.650;2022-09-09T18:40:05;5.57;;;0.93;;
43118;SDS011;28729;49.838;8.650;2022-09-09T18:44:09;3.80;;;1.07;;
43118;SDS011;28729;49.838;8.650;2022-09-09T18:48:13;4.82;;;0.98;;
43118;SDS011;28729;49.838;8.650;2022-09-09T18:52:15;5.13;;;0.95;;
43118;SDS011;28729;49.838;8.650;2022-09-09T18:56:17;3.33;;;0.80;;
43118;SDS011;28729;49.838;8.650;2022-09-09T19:00:19;4.85;;;0.80;;
43118;SDS011;28729;49.838;8.650;2022-09-09T19:04:21;2.92;;;0.75;;
43118;SDS011;28729;49.838;8.650;2022-09-09T19:12:26;3.53;;;1.15;;
43118;SDS011;28729;49.838;8.650;2022-09-09T19:16:28;2.92;;;1.00;;
43118;SDS011;28729;49.838;8.650;2022-09-09T19:20:31;5.43;;;1.40;;
43118;SDS011;28729;49.838;8.650;2022-09-09T19:24:33;7.80;;;1.30;;
43118;SDS011;28729;49.838;8.650;2022-09-09T19:28:35;2.45;;;0.93;;
43118;SDS011;28729;49.838;8.650;2022-09-09T19:32:37;7.43;;;1.13;;
43118;SDS011;28729;49.838;8.650;2022-09-09T19:36:53;3.60;;;1.17;;
43118;SDS011;28729;49.838;8.650;2022-09-09T19:40:55;3.45;;;1.00;;
43118;SDS011;28729;49.838;8.650;2022-09-09T19:44:57;3.00;;;0.80;;
43118;SDS011;28729;49.838;8.650;2022-09-09T19:48:59;1.73;;;0.98;;
43118;SDS011;28729;49.838;8.650;2022-09-09T19:57:04;3.42;;;0.88;;
43118;SDS011;28729;49.838;8.650;2022-09-09T20:01:06;3.35;;;0.93;;
43118;SDS011;28729;49.838;8.650;2022-09-09T20:05:15;4.32;;;1.10;;
43118;SDS011;28729;49.838;8.650;2022-09-09T20:09:17;1.65;;;0.90;;
43118;SDS011;28729;49.838;8.650;2022-09-09T20:13:19;3.67;;;1.10;;
43118;SDS011;28729;49.838;8.650;2022-09-09T20:17:21;4.75;;;1.30;;
43118;SDS011;28729;49.838;8.650;2022-09-09T20:21:26;1.85;;;1.02;;
43118;SDS011;28729;49.838;8.650;2022-09-09T20:25:34;4.00;;;1.25;;
43118;SDS011;28729;49.838;8.650;2022-09-09T20:29:36;5.40;;;1.40;;
43118;SDS011;28729;49.838;8.650;2022-09-09T20:33:37;3.78;;;1.48;;
43118;SDS011;28729;49.838;8.650;2022-09-09T20:37:41;4.28;;;1.10;;
43118;SDS011;28729;49.838;8.650;2022-09-09T20:41:43;2.63;;;1.23;;
43118;SDS011;28729;49.838;8.650;2022-09-09T20:45:46;3.72;;;1.40;;
43118;SDS011;28729;49.838;8.650;2022-09-09T20:49:47;3.03;;;1.30;;
43118;SDS011;28729;49.838;8.650;2022-09-09T20:53:53;3.88;;;1.15;;
43118;SDS011;28729;49.838;8.650;2022-09-09T20:57:59;3.05;;;1.10;;
43118;SDS011;28729;49.838;8.650;2022-09-09T21:02:01;3.85;;;1.40;;
43118;SDS011;28729;49.838;8.650;2022-09-09T21:06:04;2.33;;;1.10;;
43118;SDS011;28729;49.838;8.650;2022-09-09T21:10:07;1.67;;;0.90;;
43118;SDS011;28729;49.838;8.650;2022-09-09T21:14:09;4.65;;;1.13;;
43118;SDS011;28729;49.838;8.650;2022-09-09T21:18:10;1.83;;;0.90;;
43118;SDS011;28729;49.838;8.650;2022-09-09T21:22:12;4.18;;;1.23;;
43118;SDS011;28729;49.838;8.650;2022-09-09T21:26:14;2.58;;;1.10;;
43118;SDS011;28729;49.838;8.650;2022-09-09T21:30:18;4.00;;;1.08;;
43118;SDS011;28729;49.838;8.650;2022-09-09T21:34:19;3.50;;;1.25;;
43118;SDS011;28729;49.838;8.650;2022-09-09T21:38:22;2.08;;;1.10;;
43118;SDS011;28729;49.838;8.650;2022-09-09T21:46:26;3.35;;;1.58;;
43118;SDS011;28729;49.838;8.650;2022-09-09T21:50:29;4.85;;;1.35;;
43118;SDS011;28729;49.838;8.650;2022-09-09T21:54:30;2.38;;;1.23;;
43118;SDS011;28729;49.838;8.650;2022-09-09T21:58:33;3.45;;;1.50;;
43118;SDS011;28729;49.838;8.650;2022-09-09T22:02:35;4.90;;;1.45;;
43118;SDS011;28729;49.838;8.650;2022-09-09T22:06:37;9.63;;;2.20;;
43118;SDS011;28729;49.838;8.650;2022-09-09T22:10:40;5.20;;;1.70;;
43118;SDS011;28729;49.838;8.650;2022-09-09T22:14:42;5.00;;;2.13;;
43118;SDS011;28729;49.838;8.650;2022-09-09T22:18:48;5.88;;;2.03;;
43118;SDS011;28729;49.838;8.650;2022-09-09T22:22:51;4.07;;;1.80;;
43118;SDS011;28729;49.838;8.650;2022-09-09T22:26:52;3.20;;;1.73;;
43118;SDS011;28729;49.838;8.650;2022-09-09T22:30:56;3.60;;;2.05;;
43118;SDS011;28729;49.838;8.650;2022-09-09T22:34:57;6.57;;;2.10;;
43118;SDS011;28729;49.838;8.650;2022-09-09T22:38:59;4.47;;;2.25;;
43118;SDS011;28729;49.838;8.650;2022-09-09T22:43:02;5.00;;;2.30;;
43118;SDS011;28729;49.838;8.650;2022-09-09T22:47:05;7.55;;;2.28;;
43118;SDS011;28729;49.838;8.650;2022-09-09T22:51:08;5.97;;;1.90;;
43118;SDS011;28729;49.838;8.650;2022-09-09T22:55:12;4.13;;;1.75;;
43118;SDS011;28729;49.838;8.650;2022-09-09T22:59:14;4.30;;;1.60;;
43118;SDS011;28729;49.838;8.650;2022-09-09T23:03:16;3.40;;;2.00;;
43118;SDS011;28729;49.838;8.650;2022-09-09T23:07:18;7.78;;;2.13;;
43118;SDS011;28729;49.838;8.650;2022-09-09T23:11:20;10.27;;;2.90;;
43118;SDS011;28729;49.838;8.650;2022-09-09T23:15:24;5.10;;;2.10;;
43118;SDS011;28729;49.838;8.650;2022-09-09T23:19:25;4.97;;;2.10;;
43118;SDS011;28729;49.838;8.650;2022-09-09T23:23:28;4.82;;;2.30;;
43118;SDS011;28729;49.838;8.650;2022-09-09T23:27:30;7.30;;;2.33;;
43118;SDS011;28729;49.838;8.650;2022-09-09T23:31:33;6.22;;;2.22;;
43118;SDS011;28729;49.838;8.650;2022-09-09T23:35:38;7.07;;;2.30;;
43118;SDS011;28729;49.838;8.650;2022-09-09T23:39:40;6.63;;;2.50;;
43118;SDS011;28729;49.838;8.650;2022-09-09T23:43:43;5.97;;;2.17;;
43118;SDS011;28729;49.838;8.650;2022-09-09T23:47:45;10.03;;;2.40;;
43118;SDS011;28729;49.838;8.650;2022-09-09T23:51:47;6.22;;;2.17;;
43118;SDS011;28729;49.838;8.650;2022-09-09T23:55:49;9.65;;;2.67;;
43118;SDS011;28729;49.838;8.650;2022-09-09T23:59:51;7.82;;;2.38;;
